Time,TemperatureF,DewpointF,PressureIn,WindDirection,WindDirectionDegrees,WindSpeedMPH,WindSpeedGustMPH,Humidity,HourlyPrecipIn,Conditions,Clouds,dailyrainin,SoftwareType,DateUTC
2013-06-15 00:01:00,53.4,52.3,30.05,SSE,160,0.0,0.0,96,0.00,,---,0.00,VWS V14.01,2013-06-15 04:01:00,
2013-06-15 00:02:00,53.3,52.2,30.05,SSE,160,0.0,0.0,96,0.00,,---,0.00,VWS V14.01,2013-06-15 04:02:00,
2013-06-15 00:07:00,53.1,52.0,30.05,SSE,160,0.0,0.0,96,0.00,,---,0.00,VWS V14.01,2013-06-15 04:07:00,
2013-06-15 00:12:00,52.9,52.1,30.05,SSE,160,0.0,0.0,97,0.00,,---,0.00,VWS V14.01,2013-06-15 04:12:00,
2013-06-15 00:17:00,52.8,52.0,30.06,SSE,160,0.0,0.0,97,0.00,,---,0.00,VWS V14.01,2013-06-15 04:17:00,
2013-06-15 00:22:00,52.6,51.8,30.06,SSE,160,0.0,0.0,97,0.00,,---,0.00,VWS V14.01,2013-06-15 04:22:00,
2013-06-15 00:27:00,52.5,51.7,30.05,SSE,160,0.0,0.0,97,0.00,,---,0.00,VWS V14.01,2013-06-15 04:27:00,
2013-06-15 00:32:00,52.4,51.6,30.05,SSE,161,0.0,0.0,97,0.00,,---,0.00,VWS V14.01,2013-06-15 04:32:00,
2013-06-15 00:37:00,52.4,51.8,30.05,SSE,160,0.0,0.0,98,0.00,,---,0.00,VWS V14.01,2013-06-15 04:37:00,
2013-06-15 00:42:00,52.4,51.8,30.05,SSE,160,0.0,0.0,98,0.00,,---,0.00,VWS V14.01,2013-06-15 04:42:00,
2013-06-15 00:47:00,52.4,51.8,30.05,SSE,162,0.0,0.0,98,0.00,,---,0.00,VWS V14.01,2013-06-15 04:47:00,
2013-06-15 00:53:00,52.5,52.0,30.05,SSE,162,0.0,0.0,98,0.00,,---,0.00,VWS V14.01,2013-06-15 04:53:00,
2013-06-15 00:58:00,52.5,52.0,30.05,SSE,160,0.0,0.0,98,0.00,,---,0.00,VWS V14.01,2013-06-15 04:58:00,
2013-06-15 01:03:00,52.5,52.0,30.06,SSE,160,0.0,0.0,98,0.00,,---,0.00,VWS V14.01,2013-06-15 05:03:00,
2013-06-15 01:08:00,52.5,52.0,30.06,SSE,160,0.0,0.0,98,0.00,,---,0.00,VWS V14.01,2013-06-15 05:08:00,
2013-06-15 01:13:00,52.4,51.8,30.06,SSE,152,0.0,1.0,98,0.00,,---,0.00,VWS V14.01,2013-06-15 05:13:00,
2013-06-15 01:18:00,52.1,51.5,30.06,SSE,152,0.0,1.0,98,0.00,,---,0.00,VWS V14.01,2013-06-15 05:18:00,
2013-06-15 01:23:00,52.2,51.7,30.06,SSE,154,0.0,1.0,98,0.00,,---,0.00,VWS V14.01,2013-06-15 05:23:00,
2013-06-15 01:28:00,52.2,51.7,30.06,SSE,152,0.0,1.0,98,0.00,,---,0.00,VWS V14.01,2013-06-15 05:28:00,
2013-06-15 01:33:00,52.1,51.8,30.06,SSE,153,0.0,0.0,99,0.00,,---,0.00,VWS V14.01,2013-06-15 05:33:00,
2013-06-15 01:38:00,52.0,51.5,30.06,SSE,155,0.0,0.0,98,0.00,,---,0.00,VWS V14.01,2013-06-15 05:38:00,
2013-06-15 01:43:00,52.0,51.7,30.06,SSE,155,0.0,0.0,99,0.00,,---,0.00,VWS V14.01,2013-06-15 05:43:00,
2013-06-15 01:48:00,52.0,51.7,30.06,ESE,115,0.0,1.0,99,0.00,,---,0.00,VWS V14.01,2013-06-15 05:48:00,
2013-06-15 01:53:00,52.0,51.7,30.06,ESE,115,0.0,1.0,99,0.00,,---,0.00,VWS V14.01,2013-06-15 05:53:00,
2013-06-15 01:58:00,52.0,51.7,30.06,ESE,115,0.0,1.0,99,0.00,,---,0.00,VWS V14.01,2013-06-15 05:58:00,
2013-06-15 02:03:00,51.8,51.5,30.06,ESE,116,0.0,0.0,99,0.00,,---,0.00,VWS V14.01,2013-06-15 06:03:00,
2013-06-15 02:08:00,51.7,51.4,30.06,ESE,122,0.0,1.0,99,0.00,,---,0.00,VWS V14.01,2013-06-15 06:08:00,
2013-06-15 02:13:00,51.7,51.4,30.06,ESE,123,0.0,1.0,99,0.00,,---,0.00,VWS V14.01,2013-06-15 06:13:00,
2013-06-15 02:18:00,51.8,51.5,30.06,ESE,122,0.0,1.0,99,0.00,,---,0.00,VWS V14.01,2013-06-15 06:18:00,
2013-06-15 02:23:00,51.7,51.4,30.06,ESE,122,0.0,1.0,99,0.00,,---,0.00,VWS V14.01,2013-06-15 06:23:00,
2013-06-15 02:28:00,51.7,51.4,30.06,ESE,122,0.0,1.0,99,0.00,,---,0.00,VWS V14.01,2013-06-15 06:28:00,
2013-06-15 02:33:00,51.6,51.3,30.06,ESE,122,0.0,0.0,99,0.00,,---,0.00,VWS V14.01,2013-06-15 06:33:00,
2013-06-15 02:38:00,51.4,51.1,30.06,ESE,122,0.0,0.0,99,0.00,,---,0.00,VWS V14.01,2013-06-15 06:38:00,
2013-06-15 02:43:00,51.2,50.9,30.06,ESE,122,0.0,0.0,99,0.00,,---,0.00,VWS V14.01,2013-06-15 06:43:00,
2013-06-15 02:48:00,51.0,50.7,30.07,ESE,122,0.0,0.0,99,0.00,,---,0.00,VWS V14.01,2013-06-15 06:48:00,
2013-06-15 02:54:00,50.9,50.6,30.06,ESE,122,0.0,0.0,99,0.00,,---,0.00,VWS V14.01,2013-06-15 06:54:00,
2013-06-15 02:59:00,50.9,50.6,30.06,ESE,122,0.0,0.0,99,0.00,,---,0.00,VWS V14.01,2013-06-15 06:59:00,
2013-06-15 03:04:00,50.8,50.5,30.05,ESE,122,0.0,0.0,99,0.00,,---,0.00,VWS V14.01,2013-06-15 07:04:00,
2013-06-15 03:09:00,50.8,50.5,30.05,ESE,122,0.0,0.0,99,0.00,,---,0.00,VWS V14.01,2013-06-15 07:09:00,
2013-06-15 03:14:00,50.8,50.5,30.05,ESE,122,0.0,0.0,99,0.00,,---,0.00,VWS V14.01,2013-06-15 07:14:00,
2013-06-15 03:19:00,50.6,50.3,30.05,ESE,122,0.0,0.0,99,0.00,,---,0.00,VWS V14.01,2013-06-15 07:19:00,
2013-06-15 03:24:00,50.5,50.2,30.04,ESE,122,0.0,0.0,99,0.00,,---,0.00,VWS V14.01,2013-06-15 07:24:00,
2013-06-15 03:29:00,50.6,50.3,30.04,ESE,122,0.0,0.0,99,0.00,,---,0.00,VWS V14.01,2013-06-15 07:29:00,
2013-06-15 03:34:00,50.7,50.4,30.04,ESE,122,0.0,0.0,99,0.00,,---,0.00,VWS V14.01,2013-06-15 07:34:00,
2013-06-15 03:39:00,50.5,50.2,30.04,ESE,122,0.0,0.0,99,0.00,,---,0.00,VWS V14.01,2013-06-15 07:39:00,
2013-06-15 03:44:00,50.2,49.9,30.04,ESE,122,0.0,0.0,99,0.00,,---,0.00,VWS V14.01,2013-06-15 07:44:00,
2013-06-15 03:49:00,50.3,50.0,30.04,ESE,122,0.0,0.0,99,0.00,,---,0.00,VWS V14.01,2013-06-15 07:49:00,
2013-06-15 03:54:00,50.4,50.1,30.04,ESE,122,0.0,0.0,99,0.00,,---,0.00,VWS V14.01,2013-06-15 07:54:00,
2013-06-15 03:59:00,50.3,50.0,30.04,ESE,122,0.0,0.0,99,0.00,,---,0.00,VWS V14.01,2013-06-15 07:59:00,
2013-06-15 04:04:00,49.8,49.5,30.04,ESE,122,0.0,0.0,99,0.00,,---,0.00,VWS V14.01,2013-06-15 08:04:00,
2013-06-15 04:09:00,49.6,49.3,30.04,SSE,150,0.0,1.0,99,0.00,,---,0.00,VWS V14.01,2013-06-15 08:09:00,
2013-06-15 04:14:00,49.7,49.4,30.05,SSE,150,0.0,1.0,99,0.00,,---,0.00,VWS V14.01,2013-06-15 08:14:00,
2013-06-15 04:19:00,49.7,49.4,30.05,SSE,149,0.0,1.0,99,0.00,,---,0.00,VWS V14.01,2013-06-15 08:19:00,
2013-06-15 04:24:00,49.8,49.5,30.05,SSE,149,0.0,1.0,99,0.00,,---,0.00,VWS V14.01,2013-06-15 08:24:00,
2013-06-15 04:29:00,49.9,49.9,30.05,ESE,118,1.0,1.0,100,0.00,,---,0.00,VWS V14.01,2013-06-15 08:29:00,
2013-06-15 04:34:00,50.0,50.0,30.05,ESE,118,0.0,1.0,100,0.00,,---,0.00,VWS V14.01,2013-06-15 08:34:00,
2013-06-15 04:39:00,50.0,50.0,30.05,ESE,118,0.0,1.0,100,0.00,,---,0.00,VWS V14.01,2013-06-15 08:39:00,
2013-06-15 04:44:00,49.8,49.5,30.05,ESE,118,0.0,1.0,99,0.00,,---,0.00,VWS V14.01,2013-06-15 08:44:00,
2013-06-15 04:49:00,49.6,49.3,30.06,ESE,118,0.0,1.0,99,0.00,,---,0.00,VWS V14.01,2013-06-15 08:49:00,
2013-06-15 04:54:00,49.6,49.3,30.06,ESE,119,0.0,1.0,99,0.00,,---,0.00,VWS V14.01,2013-06-15 08:54:00,
2013-06-15 04:59:00,49.4,49.1,30.06,ESE,118,0.0,1.0,99,0.00,,---,0.00,VWS V14.01,2013-06-15 08:59:00,
2013-06-15 05:04:00,49.4,49.1,30.07,ESE,119,0.0,0.0,99,0.00,,---,0.00,VWS V14.01,2013-06-15 09:04:00,
2013-06-15 05:09:00,49.4,49.4,30.07,ESE,118,0.0,0.0,100,0.00,,---,0.00,VWS V14.01,2013-06-15 09:09:00,
2013-06-15 05:14:00,49.2,49.2,30.07,ESE,118,0.0,0.0,100,0.00,,---,0.00,VWS V14.01,2013-06-15 09:14:00,
2013-06-15 05:19:00,49.2,49.2,30.07,ESE,118,0.0,0.0,100,0.00,,---,0.00,VWS V14.01,2013-06-15 09:19:00,
2013-06-15 05:25:00,49.3,49.3,30.08,ESE,118,0.0,0.0,100,0.00,,---,0.00,VWS V14.01,2013-06-15 09:25:00,
2013-06-15 05:30:00,49.3,49.3,30.08,ESE,118,0.0,0.0,100,0.00,,---,0.00,VWS V14.01,2013-06-15 09:30:00,
2013-06-15 05:35:00,49.2,49.2,30.08,ESE,119,0.0,0.0,100,0.00,,---,0.00,VWS V14.01,2013-06-15 09:35:00,
2013-06-15 05:40:00,49.1,49.1,30.09,ESE,119,0.0,0.0,100,0.00,,---,0.00,VWS V14.01,2013-06-15 09:40:00,
2013-06-15 05:45:00,49.1,49.1,30.09,ESE,118,0.0,0.0,100,0.00,,---,0.00,VWS V14.01,2013-06-15 09:45:00,
2013-06-15 05:50:00,49.1,49.1,30.09,ESE,119,0.0,0.0,100,0.00,,---,0.00,VWS V14.01,2013-06-15 09:50:00,
2013-06-15 05:55:00,49.5,49.5,30.09,ESE,118,0.0,1.0,100,0.00,,---,0.00,VWS V14.01,2013-06-15 09:55:00,
2013-06-15 06:00:00,49.4,49.4,30.09,ESE,118,0.0,0.0,100,0.00,,---,0.00,VWS V14.01,2013-06-15 10:00:00,
2013-06-15 06:05:00,49.3,49.3,30.09,ESE,119,0.0,0.0,100,0.00,,---,0.00,VWS V14.01,2013-06-15 10:05:00,
2013-06-15 06:10:00,49.3,49.3,30.09,ESE,119,0.0,0.0,100,0.00,,---,0.00,VWS V14.01,2013-06-15 10:10:00,
2013-06-15 06:15:00,49.2,49.2,30.09,ESE,118,0.0,0.0,100,0.00,,---,0.00,VWS V14.01,2013-06-15 10:15:00,
2013-06-15 06:20:00,49.2,49.2,30.09,ESE,118,0.0,0.0,100,0.00,,---,0.00,VWS V14.01,2013-06-15 10:20:00,
2013-06-15 06:25:00,49.1,49.1,30.09,ESE,118,0.0,0.0,100,0.00,,---,0.00,VWS V14.01,2013-06-15 10:25:00,
2013-06-15 06:30:00,49.1,49.1,30.09,SSE,148,0.0,1.0,100,0.00,,---,0.00,VWS V14.01,2013-06-15 10:30:00,
2013-06-15 06:35:00,49.7,49.7,30.09,SSE,148,0.0,1.0,100,0.00,,---,0.00,VWS V14.01,2013-06-15 10:35:00,
2013-06-15 06:40:00,50.0,50.0,30.09,SSE,153,0.0,1.0,100,0.00,,---,0.00,VWS V14.01,2013-06-15 10:40:00,
2013-06-15 06:45:00,50.2,50.2,30.09,SSE,153,0.0,1.0,100,0.00,,---,0.00,VWS V14.01,2013-06-15 10:45:00,
2013-06-15 06:50:00,50.5,50.5,30.09,SSE,152,0.0,1.0,100,0.00,,---,0.00,VWS V14.01,2013-06-15 10:50:00,
2013-06-15 06:55:00,50.8,50.8,30.09,South,187,0.0,2.0,100,0.00,,---,0.00,VWS V14.01,2013-06-15 10:55:00,
2013-06-15 07:00:00,50.9,50.9,30.09,South,188,0.0,0.0,100,0.00,,---,0.00,VWS V14.01,2013-06-15 11:00:00,
2013-06-15 07:05:00,51.1,51.1,30.09,SSW,197,0.0,1.0,100,0.00,,---,0.00,VWS V14.01,2013-06-15 11:05:00,
2013-06-15 07:10:00,51.5,51.5,30.10,SSW,197,0.0,1.0,100,0.00,,---,0.00,VWS V14.01,2013-06-15 11:10:00,
2013-06-15 07:15:00,52.4,52.4,30.09,SSW,198,0.0,1.0,100,0.00,,---,0.00,VWS V14.01,2013-06-15 11:15:00,
2013-06-15 07:20:00,53.3,53.3,30.09,SSW,197,0.0,1.0,100,0.00,,---,0.00,VWS V14.01,2013-06-15 11:20:00,
2013-06-15 07:26:00,53.6,53.6,30.09,South,191,0.0,1.0,100,0.00,,---,0.00,VWS V14.01,2013-06-15 11:26:00,
2013-06-15 07:31:00,53.6,53.6,30.09,ESE,121,0.0,1.0,100,0.00,,---,0.00,VWS V14.01,2013-06-15 11:31:00,
2013-06-15 07:35:00,54.1,54.1,30.09,ESE,122,0.0,1.0,100,0.00,,---,0.00,VWS V14.01,2013-06-15 11:35:00,
2013-06-15 07:40:00,54.6,54.6,30.09,ESE,121,0.0,1.0,100,0.00,,---,0.00,VWS V14.01,2013-06-15 11:40:00,
2013-06-15 07:46:00,55.5,55.5,30.09,ESE,121,0.0,1.0,100,0.00,,---,0.00,VWS V14.01,2013-06-15 11:46:00,
2013-06-15 07:51:00,55.9,55.9,30.10,ESE,121,0.0,1.0,100,0.00,,---,0.00,VWS V14.01,2013-06-15 11:51:00,
2013-06-15 07:56:00,56.2,55.9,30.10,ESE,121,0.0,1.0,99,0.00,,---,0.00,VWS V14.01,2013-06-15 11:56:00,
2013-06-15 08:01:00,57.0,56.7,30.10,ESE,122,0.0,0.0,99,0.00,,---,0.00,VWS V14.01,2013-06-15 12:01:00,
2013-06-15 08:06:00,57.7,57.4,30.10,ESE,122,0.0,0.0,99,0.00,,---,0.00,VWS V14.01,2013-06-15 12:06:00,
2013-06-15 08:11:00,58.7,58.4,30.11,ESE,121,0.0,0.0,99,0.00,,---,0.00,VWS V14.01,2013-06-15 12:11:00,
2013-06-15 08:16:00,59.8,59.5,30.11,SSW,193,1.0,2.0,99,0.00,,---,0.00,VWS V14.01,2013-06-15 12:16:00,
2013-06-15 08:21:00,60.2,59.6,30.11,WNW,293,2.0,3.0,98,0.00,,---,0.00,VWS V14.01,2013-06-15 12:21:00,
2013-06-15 08:26:00,60.5,59.4,30.12,WSW,248,4.0,4.0,96,0.00,,---,0.00,VWS V14.01,2013-06-15 12:26:00,
2013-06-15 08:31:00,61.1,59.7,30.12,WSW,253,3.0,3.0,95,0.00,,---,0.00,VWS V14.01,2013-06-15 12:31:00,
2013-06-15 08:36:00,61.7,59.0,30.13,SSW,201,3.0,4.0,91,0.00,,---,0.00,VWS V14.01,2013-06-15 12:36:00,
2013-06-15 08:41:00,62.4,59.1,30.13,South,191,2.0,4.0,89,0.00,,---,0.00,VWS V14.01,2013-06-15 12:41:00,
2013-06-15 08:46:00,62.7,58.5,30.13,SW,226,2.0,6.0,86,0.01,,---,0.01,VWS V14.01,2013-06-15 12:46:00,
2013-06-15 08:51:00,62.9,58.7,30.13,South,174,3.0,6.0,86,0.01,,---,0.01,VWS V14.01,2013-06-15 12:51:00,
2013-06-15 08:56:00,63.4,58.5,30.13,South,190,6.0,6.0,84,0.01,,---,0.01,VWS V14.01,2013-06-15 12:56:00,
2013-06-15 09:01:00,63.7,58.5,30.13,WSW,250,3.0,5.0,83,0.01,,---,0.01,VWS V14.01,2013-06-15 13:01:00,
2013-06-15 09:06:00,63.9,58.6,30.13,SSW,205,2.0,5.0,83,0.01,,---,0.01,VWS V14.01,2013-06-15 13:06:00,
2013-06-15 09:11:00,64.2,58.6,30.14,SSE,148,1.0,5.0,82,0.01,,---,0.01,VWS V14.01,2013-06-15 13:11:00,
2013-06-15 09:16:00,64.6,59.0,30.14,SSW,212,3.0,6.0,82,0.01,,---,0.01,VWS V14.01,2013-06-15 13:16:00,
2013-06-15 09:21:00,64.5,58.2,30.13,SE,144,4.0,7.0,80,0.01,,---,0.01,VWS V14.01,2013-06-15 13:21:00,
2013-06-15 09:26:00,64.4,58.1,30.13,South,184,6.0,8.0,80,0.01,,---,0.01,VWS V14.01,2013-06-15 13:26:00,
2013-06-15 09:31:00,64.3,58.0,30.13,ESE,104,2.0,6.0,80,0.01,,---,0.01,VWS V14.01,2013-06-15 13:31:00,
2013-06-15 09:36:00,64.5,57.8,30.13,SE,130,2.0,8.0,79,0.01,,---,0.01,VWS V14.01,2013-06-15 13:36:00,
2013-06-15 09:41:00,64.8,57.8,30.13,SSW,197,2.0,8.0,78,0.01,,---,0.01,VWS V14.01,2013-06-15 13:41:00,
2013-06-15 09:46:00,65.0,58.0,30.13,SW,235,3.0,8.0,78,0.01,,---,0.01,VWS V14.01,2013-06-15 13:46:00,
2013-06-15 09:51:00,65.0,57.6,30.12,SW,215,4.0,8.0,77,0.01,,---,0.01,VWS V14.01,2013-06-15 13:51:00,
2013-06-15 09:56:00,64.7,58.0,30.12,SSE,160,2.0,8.0,79,0.01,,---,0.01,VWS V14.01,2013-06-15 13:56:00,
2013-06-15 10:01:00,65.4,58.0,30.12,WSW,245,6.0,9.0,77,0.00,,---,0.01,VWS V14.01,2013-06-15 14:01:00,
2013-06-15 10:06:00,65.0,57.6,30.12,SSW,210,9.0,12.0,77,0.00,,---,0.01,VWS V14.01,2013-06-15 14:06:00,
2013-06-15 10:11:00,65.0,57.3,30.12,SSW,211,4.0,12.0,76,0.00,,---,0.01,VWS V14.01,2013-06-15 14:11:00,
2013-06-15 10:16:00,65.0,57.6,30.12,SSW,195,5.0,12.0,77,0.00,,---,0.01,VWS V14.01,2013-06-15 14:16:00,
2013-06-15 10:21:00,65.5,57.7,30.12,WSW,240,7.0,12.0,76,0.00,,---,0.01,VWS V14.01,2013-06-15 14:21:00,
2013-06-15 10:26:00,65.9,57.8,30.12,SSW,205,6.0,12.0,75,0.00,,---,0.01,VWS V14.01,2013-06-15 14:26:00,
2013-06-15 10:31:00,66.3,58.5,30.12,West,263,0.0,6.0,76,0.00,,---,0.01,VWS V14.01,2013-06-15 14:31:00,
2013-06-15 10:37:00,66.2,58.0,30.11,SE,146,2.0,9.0,75,0.00,,---,0.01,VWS V14.01,2013-06-15 14:37:00,
2013-06-15 10:41:00,65.9,56.6,30.12,ENE,61,1.0,9.0,72,0.00,,---,0.01,VWS V14.01,2013-06-15 14:41:00,
2013-06-15 10:46:00,66.0,57.5,30.12,NNW,329,1.0,9.0,74,0.00,,---,0.01,VWS V14.01,2013-06-15 14:46:00,
2013-06-15 10:51:00,66.3,57.4,30.11,SW,236,5.0,9.0,73,0.00,,---,0.01,VWS V14.01,2013-06-15 14:51:00,
2013-06-15 10:56:00,66.4,56.7,30.11,WSW,249,3.0,9.0,71,0.00,,---,0.01,VWS V14.01,2013-06-15 14:56:00,
2013-06-15 11:02:00,66.4,58.2,30.11,WNW,283,3.0,4.0,75,0.00,,---,0.01,VWS V14.01,2013-06-15 15:02:00,
2013-06-15 11:07:00,66.7,56.2,30.12,West,259,6.0,12.0,69,0.00,,---,0.01,VWS V14.01,2013-06-15 15:07:00,
2013-06-15 11:12:00,66.7,56.6,30.11,WNW,285,4.0,12.0,70,0.00,,---,0.01,VWS V14.01,2013-06-15 15:12:00,
2013-06-15 11:17:00,66.7,56.2,30.11,SW,229,3.0,12.0,69,0.00,,---,0.01,VWS V14.01,2013-06-15 15:17:00,
2013-06-15 11:22:00,67.3,56.8,30.11,SSW,207,4.0,12.0,69,0.00,,---,0.01,VWS V14.01,2013-06-15 15:22:00,
2013-06-15 11:27:00,67.7,57.2,30.11,South,173,1.0,12.0,69,0.00,,---,0.01,VWS V14.01,2013-06-15 15:27:00,
2013-06-15 11:32:00,67.9,55.7,30.11,SE,138,1.0,6.0,65,0.00,,---,0.01,VWS V14.01,2013-06-15 15:32:00,
2013-06-15 11:37:00,68.1,57.6,30.11,WSW,248,2.0,6.0,69,0.00,,---,0.01,VWS V14.01,2013-06-15 15:37:00,
2013-06-15 11:42:00,68.2,57.7,30.10,WSW,246,2.0,8.0,69,0.00,,---,0.01,VWS V14.01,2013-06-15 15:42:00,
2013-06-15 11:47:00,68.5,58.3,30.10,WNW,301,7.0,8.0,70,0.00,,---,0.01,VWS V14.01,2013-06-15 15:47:00,
2013-06-15 11:52:00,67.7,56.0,30.10,SW,233,4.0,8.0,66,0.00,,---,0.01,VWS V14.01,2013-06-15 15:52:00,
2013-06-15 11:57:00,68.2,57.2,30.10,ENE,72,2.0,8.0,68,0.00,,---,0.01,VWS V14.01,2013-06-15 15:57:00,
2013-06-15 12:02:00,68.9,58.3,30.10,West,281,3.0,3.0,69,0.00,,---,0.01,VWS V14.01,2013-06-15 16:02:00,
2013-06-15 12:07:00,68.4,57.0,30.10,NNW,333,2.0,6.0,67,0.00,,---,0.01,VWS V14.01,2013-06-15 16:07:00,
2013-06-15 12:12:00,68.3,56.5,30.10,WNW,290,2.0,7.0,66,0.00,,---,0.01,VWS V14.01,2013-06-15 16:12:00,
2013-06-15 12:17:00,69.2,59.4,30.10,NNW,345,3.0,7.0,71,0.00,,---,0.01,VWS V14.01,2013-06-15 16:17:00,
2013-06-15 12:22:00,69.7,57.4,30.10,North,356,1.0,7.0,65,0.00,,---,0.01,VWS V14.01,2013-06-15 16:22:00,
2013-06-15 12:27:00,70.4,58.1,30.10,NNW,338,6.0,7.0,65,0.00,,---,0.01,VWS V14.01,2013-06-15 16:27:00,
2013-06-15 12:32:00,69.3,57.0,30.10,NNW,340,4.0,6.0,65,0.00,,---,0.01,VWS V14.01,2013-06-15 16:32:00,
2013-06-15 12:37:00,69.5,56.8,30.10,SSW,195,2.0,6.0,64,0.00,,---,0.01,VWS V14.01,2013-06-15 16:37:00,
2013-06-15 12:42:00,69.9,55.4,30.10,West,262,3.0,6.0,60,0.00,,---,0.01,VWS V14.01,2013-06-15 16:42:00,
2013-06-15 12:47:00,69.6,56.0,30.10,WNW,283,3.0,7.0,62,0.00,,---,0.01,VWS V14.01,2013-06-15 16:47:00,
2013-06-15 12:52:00,69.3,56.2,30.10,WNW,283,3.0,7.0,63,0.00,,---,0.01,VWS V14.01,2013-06-15 16:52:00,
2013-06-15 12:57:00,69.5,55.9,30.10,NNE,33,1.0,7.0,62,0.00,,---,0.01,VWS V14.01,2013-06-15 16:57:00,
2013-06-15 13:02:00,69.9,54.9,30.10,West,261,2.0,6.0,59,0.00,,---,0.01,VWS V14.01,2013-06-15 17:02:00,
2013-06-15 13:07:00,69.9,55.8,30.09,WSW,248,1.0,6.0,61,0.00,,---,0.01,VWS V14.01,2013-06-15 17:07:00,
2013-06-15 13:12:00,69.9,54.9,30.10,SW,224,6.0,7.0,59,0.00,,---,0.01,VWS V14.01,2013-06-15 17:12:00,
2013-06-15 13:17:00,69.9,56.3,30.10,North,352,1.0,7.0,62,0.00,,---,0.01,VWS V14.01,2013-06-15 17:17:00,
2013-06-15 13:22:00,70.8,56.7,30.10,West,273,5.0,7.0,61,0.00,,---,0.01,VWS V14.01,2013-06-15 17:22:00,
2013-06-15 13:27:00,70.6,55.6,30.10,SW,235,5.0,7.0,59,0.00,,---,0.01,VWS V14.01,2013-06-15 17:27:00,
2013-06-15 13:32:00,70.7,57.1,30.10,WNW,297,3.0,6.0,62,0.00,,---,0.01,VWS V14.01,2013-06-15 17:32:00,
2013-06-15 13:37:00,70.6,56.1,30.09,North,3,0.0,6.0,60,0.00,,---,0.01,VWS V14.01,2013-06-15 17:37:00,
2013-06-15 13:42:00,71.2,56.6,30.09,NE,44,2.0,6.0,60,0.00,,---,0.01,VWS V14.01,2013-06-15 17:42:00,
2013-06-15 13:47:00,71.4,55.9,30.09,SSW,212,1.0,7.0,58,0.00,,---,0.01,VWS V14.01,2013-06-15 17:47:00,
2013-06-15 13:52:00,71.8,55.8,30.09,West,271,3.0,8.0,57,0.00,,---,0.01,VWS V14.01,2013-06-15 17:52:00,
2013-06-15 13:57:00,72.1,54.0,30.09,SSW,197,6.0,8.0,53,0.00,,---,0.01,VWS V14.01,2013-06-15 17:57:00,
2013-06-15 14:02:00,71.6,55.1,30.09,NW,307,1.0,4.0,56,0.00,,---,0.01,VWS V14.01,2013-06-15 18:02:00,
2013-06-15 14:07:00,72.2,55.2,30.09,NNW,333,3.0,4.0,55,0.00,,---,0.01,VWS V14.01,2013-06-15 18:07:00,
2013-06-15 14:12:00,72.4,55.3,30.08,West,277,1.0,6.0,55,0.00,,---,0.01,VWS V14.01,2013-06-15 18:12:00,
2013-06-15 14:17:00,72.9,56.3,30.08,South,184,10.0,10.0,56,0.00,,---,0.01,VWS V14.01,2013-06-15 18:17:00,
2013-06-15 14:22:00,72.2,54.7,30.08,SSW,195,5.0,11.0,54,0.00,,---,0.01,VWS V14.01,2013-06-15 18:22:00,
2013-06-15 14:27:00,72.0,56.4,30.08,WNW,295,3.0,11.0,58,0.00,,---,0.01,VWS V14.01,2013-06-15 18:27:00,
2013-06-15 14:32:00,71.9,54.4,30.08,West,276,1.0,6.0,54,0.00,,---,0.01,VWS V14.01,2013-06-15 18:32:00,
2013-06-15 14:37:00,70.9,53.4,30.08,WNW,284,1.0,6.0,54,0.00,,---,0.01,VWS V14.01,2013-06-15 18:37:00,
2013-06-15 14:42:00,70.6,52.7,30.08,SW,215,0.0,6.0,53,0.00,,---,0.01,VWS V14.01,2013-06-15 18:42:00,
2013-06-15 14:47:00,71.3,54.3,30.07,ENE,70,2.0,6.0,55,0.00,,---,0.01,VWS V14.01,2013-06-15 18:47:00,
2013-06-15 14:52:00,71.4,54.9,30.07,ESE,120,0.0,6.0,56,0.00,,---,0.01,VWS V14.01,2013-06-15 18:52:00,
2013-06-15 14:57:00,71.6,55.1,30.07,West,280,1.0,6.0,56,0.00,,---,0.01,VWS V14.01,2013-06-15 18:57:00,
2013-06-15 15:02:00,72.2,56.1,30.07,West,280,5.0,5.0,57,0.00,,---,0.01,VWS V14.01,2013-06-15 19:02:00,
2013-06-15 15:07:00,71.9,53.9,30.07,WNW,300,1.0,6.0,53,0.00,,---,0.01,VWS V14.01,2013-06-15 19:07:00,
2013-06-15 15:12:00,71.9,56.3,30.07,West,273,3.0,6.0,58,0.00,,---,0.01,VWS V14.01,2013-06-15 19:12:00,
2013-06-15 15:17:00,72.3,55.2,30.07,SW,215,5.0,7.0,55,0.00,,---,0.01,VWS V14.01,2013-06-15 19:17:00,
2013-06-15 15:22:00,72.5,56.4,30.07,West,260,3.0,7.0,57,0.00,,---,0.01,VWS V14.01,2013-06-15 19:22:00,
2013-06-15 15:27:00,72.3,54.7,30.07,WNW,289,3.0,7.0,54,0.00,,---,0.01,VWS V14.01,2013-06-15 19:27:00,
2013-06-15 15:32:00,72.9,59.1,30.07,SSE,164,2.0,4.0,62,0.00,,---,0.01,VWS V14.01,2013-06-15 19:32:00,
2013-06-15 15:37:00,73.8,57.6,30.07,West,259,1.0,6.0,57,0.00,,---,0.01,VWS V14.01,2013-06-15 19:37:00,
2013-06-15 15:42:00,73.5,54.8,30.06,SSW,197,0.0,11.0,52,0.00,,---,0.01,VWS V14.01,2013-06-15 19:42:00,
2013-06-15 15:47:00,73.5,57.3,30.06,SW,231,4.0,11.0,57,0.00,,---,0.01,VWS V14.01,2013-06-15 19:47:00,
2013-06-15 15:52:00,73.3,57.2,30.06,WNW,287,3.0,11.0,57,0.00,,---,0.01,VWS V14.01,2013-06-15 19:52:00,
2013-06-15 15:57:00,72.9,54.3,30.06,WSW,243,5.0,11.0,52,0.00,,---,0.01,VWS V14.01,2013-06-15 19:57:00,
2013-06-15 16:02:00,72.2,57.6,30.06,ENE,74,1.0,4.0,60,0.00,,---,0.01,VWS V14.01,2013-06-15 20:02:00,
2013-06-15 16:07:00,72.9,55.3,30.06,WSW,242,2.0,10.0,54,0.00,,---,0.01,VWS V14.01,2013-06-15 20:07:00,
2013-06-15 16:12:00,73.0,55.4,30.05,SW,226,1.0,10.0,54,0.00,,---,0.01,VWS V14.01,2013-06-15 20:12:00,
2013-06-15 16:17:00,72.9,54.3,30.06,West,264,5.0,10.0,52,0.00,,---,0.01,VWS V14.01,2013-06-15 20:17:00,
2013-06-15 16:22:00,72.6,55.5,30.06,WSW,240,5.0,10.0,55,0.00,,---,0.01,VWS V14.01,2013-06-15 20:22:00,
2013-06-15 16:27:00,72.6,56.0,30.06,WNW,293,2.0,10.0,56,0.00,,---,0.01,VWS V14.01,2013-06-15 20:27:00,
2013-06-15 16:32:00,72.5,56.4,30.05,SSW,198,3.0,4.0,57,0.00,,---,0.01,VWS V14.01,2013-06-15 20:32:00,
2013-06-15 16:37:00,72.6,55.5,30.05,SW,231,5.0,7.0,55,0.00,,---,0.01,VWS V14.01,2013-06-15 20:37:00,
2013-06-15 16:42:00,72.7,54.6,30.06,SSE,166,1.0,7.0,53,0.00,,---,0.01,VWS V14.01,2013-06-15 20:42:00,
2013-06-15 16:47:00,73.1,55.0,30.05,SSW,204,5.0,7.0,53,0.00,,---,0.01,VWS V14.01,2013-06-15 20:47:00,
2013-06-15 16:52:00,73.0,55.4,30.05,SW,222,9.0,13.0,54,0.00,,---,0.01,VWS V14.01,2013-06-15 20:52:00,
2013-06-15 16:57:00,72.8,56.7,30.05,SW,217,3.0,13.0,57,0.00,,---,0.01,VWS V14.01,2013-06-15 20:57:00,
2013-06-15 17:02:00,72.8,55.7,30.05,WNW,287,2.0,8.0,55,0.00,,---,0.01,VWS V14.01,2013-06-15 21:02:00,
2013-06-15 17:07:00,72.5,53.4,30.05,WSW,248,6.0,8.0,51,0.00,,---,0.01,VWS V14.01,2013-06-15 21:07:00,
2013-06-15 17:12:00,72.5,54.9,30.05,West,271,5.0,9.0,54,0.00,,---,0.01,VWS V14.01,2013-06-15 21:12:00,
2013-06-15 17:17:00,72.3,54.7,30.05,West,264,5.0,9.0,54,0.00,,---,0.01,VWS V14.01,2013-06-15 21:17:00,
2013-06-15 17:22:00,72.0,55.5,30.05,SSW,207,6.0,9.0,56,0.00,,---,0.01,VWS V14.01,2013-06-15 21:22:00,
2013-06-15 17:27:00,72.4,56.8,30.05,SSW,211,3.0,9.0,58,0.00,,---,0.01,VWS V14.01,2013-06-15 21:27:00,
2013-06-15 17:32:00,72.8,56.2,30.05,West,270,2.0,4.0,56,0.00,,---,0.01,VWS V14.01,2013-06-15 21:32:00,
2013-06-15 17:37:00,73.0,55.4,30.05,SW,224,3.0,4.0,54,0.00,,---,0.01,VWS V14.01,2013-06-15 21:37:00,
2013-06-15 17:42:00,73.3,55.7,30.05,SSE,159,2.0,4.0,54,0.00,,---,0.01,VWS V14.01,2013-06-15 21:42:00,
2013-06-15 17:47:00,73.3,55.7,30.05,West,277,1.0,4.0,54,0.00,,---,0.01,VWS V14.01,2013-06-15 21:47:00,
2013-06-15 17:52:00,73.5,55.9,30.05,WSW,255,1.0,5.0,54,0.00,,---,0.01,VWS V14.01,2013-06-15 21:52:00,
2013-06-15 17:57:00,73.1,55.5,30.05,WSW,243,2.0,9.0,54,0.00,,---,0.01,VWS V14.01,2013-06-15 21:57:00,
2013-06-15 18:02:00,72.5,54.9,30.05,West,276,3.0,6.0,54,0.00,,---,0.01,VWS V14.01,2013-06-15 22:02:00,
2013-06-15 18:07:00,72.5,55.4,30.05,South,174,4.0,6.0,55,0.00,,---,0.01,VWS V14.01,2013-06-15 22:07:00,
2013-06-15 18:12:00,72.5,55.4,30.05,WSW,250,5.0,9.0,55,0.00,,---,0.01,VWS V14.01,2013-06-15 22:12:00,
2013-06-15 18:17:00,72.1,56.5,30.05,South,184,2.0,9.0,58,0.00,,---,0.01,VWS V14.01,2013-06-15 22:17:00,
2013-06-15 18:22:00,72.2,55.7,30.05,SW,222,4.0,9.0,56,0.00,,---,0.01,VWS V14.01,2013-06-15 22:22:00,
2013-06-15 18:27:00,71.6,56.1,30.04,WSW,240,3.0,9.0,58,0.00,,---,0.01,VWS V14.01,2013-06-15 22:27:00,
2013-06-15 18:32:00,71.8,56.7,30.04,SSW,204,5.0,6.0,59,0.00,,---,0.01,VWS V14.01,2013-06-15 22:32:00,
2013-06-15 18:37:00,71.8,57.2,30.04,SSW,211,0.0,6.0,60,0.00,,---,0.01,VWS V14.01,2013-06-15 22:37:00,
2013-06-15 18:42:00,71.9,56.8,30.04,SW,218,2.0,6.0,59,0.00,,---,0.01,VWS V14.01,2013-06-15 22:42:00,
2013-06-15 18:47:00,71.6,55.6,30.04,West,278,5.0,8.0,57,0.00,,---,0.01,VWS V14.01,2013-06-15 22:47:00,
2013-06-15 18:52:00,71.3,55.3,30.05,SW,231,2.0,8.0,57,0.00,,---,0.01,VWS V14.01,2013-06-15 22:52:00,
2013-06-15 18:57:00,71.1,54.1,30.05,WSW,255,2.0,8.0,55,0.00,,---,0.01,VWS V14.01,2013-06-15 22:57:00,
2013-06-15 19:02:00,71.2,55.2,30.04,WSW,242,1.0,2.0,57,0.00,,---,0.01,VWS V14.01,2013-06-15 23:02:00,
2013-06-15 19:07:00,70.9,52.9,30.04,South,188,5.0,5.0,53,0.00,,---,0.01,VWS V14.01,2013-06-15 23:07:00,
2013-06-15 19:12:00,70.6,53.2,30.05,SW,232,1.0,6.0,54,0.00,,---,0.01,VWS V14.01,2013-06-15 23:12:00,
2013-06-15 19:17:00,70.4,53.5,30.05,SW,222,3.0,6.0,55,0.00,,---,0.01,VWS V14.01,2013-06-15 23:17:00,
2013-06-15 19:22:00,70.4,54.0,30.05,SSW,205,0.0,6.0,56,0.00,,---,0.01,VWS V14.01,2013-06-15 23:22:00,
2013-06-15 19:27:00,70.1,54.2,30.05,West,262,5.0,6.0,57,0.00,,---,0.01,VWS V14.01,2013-06-15 23:27:00,
2013-06-15 19:32:00,69.7,53.8,30.05,West,269,2.0,4.0,57,0.00,,---,0.01,VWS V14.01,2013-06-15 23:32:00,
2013-06-15 19:37:00,69.5,53.6,30.05,WSW,253,3.0,4.0,57,0.00,,---,0.01,VWS V14.01,2013-06-15 23:37:00,
2013-06-15 19:42:00,69.3,53.4,30.05,SSW,210,1.0,4.0,57,0.00,,---,0.01,VWS V14.01,2013-06-15 23:42:00,
2013-06-15 19:47:00,69.0,53.6,30.05,SW,231,3.0,4.0,58,0.00,,---,0.01,VWS V14.01,2013-06-15 23:47:00,
2013-06-15 19:52:00,68.5,54.1,30.05,SW,225,0.0,4.0,60,0.00,,---,0.01,VWS V14.01,2013-06-15 23:52:00,
2013-06-15 19:57:00,68.2,54.7,30.05,West,276,0.0,4.0,62,0.00,,---,0.01,VWS V14.01,2013-06-15 23:57:00,
2013-06-15 20:02:00,67.9,54.4,30.05,West,276,0.0,0.0,62,0.00,,---,0.01,VWS V14.01,2013-06-16 00:02:00,
2013-06-15 20:07:00,67.5,54.9,30.05,West,274,0.0,1.0,64,0.00,,---,0.01,VWS V14.01,2013-06-16 00:07:00,
2013-06-15 20:12:00,67.2,55.5,30.05,West,274,0.0,1.0,66,0.00,,---,0.01,VWS V14.01,2013-06-16 00:12:00,
2013-06-15 20:17:00,66.8,55.5,30.05,West,274,0.0,1.0,67,0.00,,---,0.01,VWS V14.01,2013-06-16 00:17:00,
2013-06-15 20:22:00,66.3,55.0,30.04,West,274,0.0,1.0,67,0.00,,---,0.01,VWS V14.01,2013-06-16 00:22:00,
2013-06-15 20:27:00,65.7,55.7,30.04,West,274,0.0,1.0,70,0.00,,---,0.01,VWS V14.01,2013-06-16 00:27:00,
2013-06-15 20:32:00,65.1,54.7,30.04,West,274,0.0,0.0,69,0.00,,---,0.01,VWS V14.01,2013-06-16 00:32:00,
2013-06-15 20:37:00,64.5,54.5,30.04,West,274,0.0,0.0,70,0.00,,---,0.01,VWS V14.01,2013-06-16 00:37:00,
2013-06-15 20:41:00,63.9,54.7,30.04,West,274,0.0,0.0,72,0.00,,---,0.01,VWS V14.01,2013-06-16 00:41:00,
2013-06-15 20:46:00,63.4,55.0,30.04,West,274,0.0,0.0,74,0.00,,---,0.01,VWS V14.01,2013-06-16 00:46:00,
2013-06-15 20:51:00,62.8,55.1,30.03,West,274,0.0,0.0,76,0.00,,---,0.01,VWS V14.01,2013-06-16 00:51:00,
2013-06-15 20:56:00,62.2,54.9,30.03,West,274,0.0,0.0,77,0.00,,---,0.01,VWS V14.01,2013-06-16 00:56:00,
2013-06-15 21:01:00,61.7,55.1,30.03,West,274,0.0,0.0,79,0.00,,---,0.01,VWS V14.01,2013-06-16 01:01:00,
2013-06-15 21:06:00,61.3,54.7,30.03,West,274,0.0,0.0,79,0.00,,---,0.01,VWS V14.01,2013-06-16 01:06:00,
2013-06-15 21:11:00,61.0,54.8,30.03,West,274,0.0,0.0,80,0.00,,---,0.01,VWS V14.01,2013-06-16 01:11:00,
2013-06-15 21:16:00,60.6,54.8,30.03,West,274,0.0,0.0,81,0.00,,---,0.01,VWS V14.01,2013-06-16 01:16:00,
2013-06-15 21:21:00,60.1,54.6,30.03,West,274,0.0,0.0,82,0.00,,---,0.01,VWS V14.01,2013-06-16 01:21:00,
2013-06-15 21:26:00,59.8,54.6,30.03,West,274,0.0,0.0,83,0.00,,---,0.01,VWS V14.01,2013-06-16 01:26:00,
2013-06-15 21:31:00,59.6,54.8,30.04,West,274,0.0,0.0,84,0.00,,---,0.01,VWS V14.01,2013-06-16 01:31:00,
2013-06-15 21:36:00,59.2,54.7,30.04,West,274,0.0,0.0,85,0.00,,---,0.01,VWS V14.01,2013-06-16 01:36:00,
2013-06-15 21:41:00,58.8,54.6,30.04,West,274,0.0,0.0,86,0.00,,---,0.01,VWS V14.01,2013-06-16 01:41:00,
2013-06-15 21:46:00,58.4,54.5,30.04,West,274,0.0,0.0,87,0.00,,---,0.01,VWS V14.01,2013-06-16 01:46:00,
2013-06-15 21:51:00,58.1,54.6,30.04,West,274,0.0,0.0,88,0.00,,---,0.01,VWS V14.01,2013-06-16 01:51:00,
2013-06-15 21:56:00,57.8,54.6,30.04,West,274,0.0,0.0,89,0.00,,---,0.01,VWS V14.01,2013-06-16 01:56:00,
2013-06-15 22:01:00,57.7,54.8,30.05,West,274,0.0,0.0,90,0.00,,---,0.01,VWS V14.01,2013-06-16 02:01:00,
2013-06-15 22:06:00,57.6,55.0,30.05,West,274,0.0,0.0,91,0.00,,---,0.01,VWS V14.01,2013-06-16 02:06:00,
2013-06-15 22:11:00,57.5,54.9,30.05,West,274,0.0,0.0,91,0.00,,---,0.01,VWS V14.01,2013-06-16 02:11:00,
2013-06-15 22:16:00,57.3,54.7,30.05,West,274,0.0,0.0,91,0.00,,---,0.01,VWS V14.01,2013-06-16 02:16:00,
2013-06-15 22:21:00,57.2,54.9,30.05,West,274,0.0,1.0,92,0.00,,---,0.01,VWS V14.01,2013-06-16 02:21:00,
2013-06-15 22:26:00,57.1,54.8,30.05,West,274,0.0,1.0,92,0.00,,---,0.01,VWS V14.01,2013-06-16 02:26:00,
2013-06-15 22:31:00,57.0,55.0,30.05,South,173,0.0,1.0,93,0.00,,---,0.01,VWS V14.01,2013-06-16 02:31:00,
2013-06-15 22:36:00,57.0,55.0,30.05,South,174,0.0,1.0,93,0.00,,---,0.01,VWS V14.01,2013-06-16 02:36:00,
2013-06-15 22:41:00,57.0,55.0,30.05,SSE,167,0.0,1.0,93,0.00,,---,0.01,VWS V14.01,2013-06-16 02:41:00,
2013-06-15 22:46:00,56.9,55.2,30.05,SSE,167,0.0,1.0,94,0.00,,---,0.01,VWS V14.01,2013-06-16 02:46:00,
2013-06-15 22:51:00,56.8,55.1,30.06,SSE,160,0.0,1.0,94,0.00,,---,0.01,VWS V14.01,2013-06-16 02:51:00,
2013-06-15 22:56:00,56.8,55.1,30.06,SSE,160,0.0,1.0,94,0.00,,---,0.01,VWS V14.01,2013-06-16 02:56:00,
2013-06-15 23:01:00,56.8,55.1,30.06,SSE,160,1.0,1.0,94,0.00,,---,0.01,VWS V14.01,2013-06-16 03:01:00,
2013-06-15 23:06:00,56.8,55.1,30.06,SSE,152,0.0,1.0,94,0.00,,---,0.01,VWS V14.01,2013-06-16 03:06:00,
2013-06-15 23:11:00,56.8,55.1,30.06,SSE,152,0.0,1.0,94,0.00,,---,0.01,VWS V14.01,2013-06-16 03:11:00,
2013-06-15 23:16:00,56.6,54.6,30.07,SSE,152,0.0,1.0,93,0.00,,---,0.01,VWS V14.01,2013-06-16 03:16:00,
2013-06-15 23:21:00,56.4,54.4,30.06,SSE,153,0.0,1.0,93,0.00,,---,0.01,VWS V14.01,2013-06-16 03:21:00,
2013-06-15 23:26:00,56.2,54.2,30.07,SSE,152,0.0,1.0,93,0.00,,---,0.01,VWS V14.01,2013-06-16 03:26:00,
2013-06-15 23:31:00,56.0,54.0,30.07,SSE,152,0.0,0.0,93,0.00,,---,0.01,VWS V14.01,2013-06-16 03:31:00,
2013-06-15 23:36:00,55.8,54.1,30.06,SSE,153,0.0,0.0,94,0.00,,---,0.01,VWS V14.01,2013-06-16 03:36:00,
2013-06-15 23:41:00,55.6,53.9,30.06,SSE,153,0.0,0.0,94,0.00,,---,0.01,VWS V14.01,2013-06-16 03:41:00,
2013-06-15 23:46:00,55.5,53.8,30.06,SSE,152,0.0,0.0,94,0.00,,---,0.01,VWS V14.01,2013-06-16 03:46:00,
2013-06-15 23:51:00,55.3,53.9,30.06,SSE,153,0.0,0.0,95,0.00,,---,0.01,VWS V14.01,2013-06-16 03:51:00,
2013-06-15 23:56:00,55.2,53.8,30.06,SSE,152,0.0,0.0,95,0.00,,---,0.01,VWS V14.01,2013-06-16 03:56:00,